Time;durP1;ratioP1;P1;durP2;ratioP2;P2;SDS_P1;SDS_P2;PMS_P1;PMS_P2;Temp;Humidity;BMP_temperature;BMP_pressure;BME280_temperature;BME280_humidity;BME280_pressure;Samples;Min_cycle;Max_cycle;Signal;HPM_P1;HPM_P2
2023/01/26 06:19:24;;;;;;;23.50;15.17;;;;;;;41.48;38.14;100871.47;6125482;23;20454;-87
2023/01/26 06:21:50;;;;;;;24.13;17.73;;;;;;;41.61;37.25;100870.41;6123304;23;20730;-88
2023/01/26 06:24:16;;;;;;;25.63;16.03;;;;;;;41.50;37.50;100870.03;6126652;23;20436;-89
2023/01/26 06:26:41;;;;;;;32.63;16.43;;;;;;;41.38;37.39;100869.16;6125207;23;20437;-90
2023/01/26 06:29:21;;;;;;;30.30;17.07;;;;;;;41.41;37.73;100872.00;6128041;23;20386;-88
2023/01/26 06:31:48;;;;;;;23.17;14.33;;;;;;;41.37;37.46;100876.50;6122484;23;20789;-90
2023/01/26 06:34:34;;;;;;;18.67;14.93;;;;;;;41.61;37.15;100884.03;6126864;23;20469;-88
2023/01/26 06:37:06;;;;;;;24.17;15.60;;;;;;;41.63;36.70;100865.44;6136148;23;20412;-85
2023/01/26 06:39:32;;;;;;;24.60;17.90;;;;;;;41.68;37.39;100881.59;6129191;23;20445;-91
2023/01/26 06:41:58;;;;;;;31.43;22.47;;;;;;;41.67;37.18;100890.06;6125011;23;20409;-87
2023/01/26 06:44:24;;;;;;;44.20;27.77;;;;;;;41.64;37.11;100890.75;6124409;23;20512;-88
2023/01/26 06:46:50;;;;;;;41.43;27.47;;;;;;;41.64;37.31;100888.03;6124574;23;20437;-85
2023/01/26 06:49:21;;;;;;;39.13;31.20;;;;;;;41.60;37.08;100887.88;6124295;23;20386;-89
2023/01/26 06:52:03;;;;;;;42.20;30.83;;;;;;;41.54;37.18;100878.31;6149045;23;20495;-88
2023/01/26 06:54:29;;;;;;;48.27;30.87;;;;;;;41.58;37.41;100888.22;6124656;23;20824;-87
2023/01/26 06:56:55;;;;;;;42.83;32.80;;;;;;;41.52;37.62;100886.81;6149278;23;20382;-86
2023/01/26 06:59:23;;;;;;;45.20;29.40;;;;;;;41.36;37.49;100885.78;6128368;23;20386;-90
2023/01/26 07:01:50;;;;;;;40.70;29.17;;;;;;;41.41;37.50;100887.53;6123880;23;20233;-88
2023/01/26 07:04:17;;;;;;;41.23;30.87;;;;;;;41.46;37.53;100890.84;6125931;23;20422;-86
2023/01/26 07:06:43;;;;;;;39.50;30.67;;;;;;;41.50;37.28;100893.72;6123789;23;20386;-85
2023/01/26 07:09:10;;;;;;;44.10;30.50;;;;;;;41.47;37.71;100894.38;6124431;23;20390;-86
2023/01/26 07:11:42;;;;;;;60.60;37.20;;;;;;;41.52;37.27;100899.63;6125143;23;20937;-91
2023/01/26 07:14:08;;;;;;;61.63;40.53;;;;;;;41.54;37.24;100894.66;6124070;23;20409;-89
2023/01/26 07:16:35;;;;;;;60.20;43.70;;;;;;;41.53;37.34;100893.84;6123514;23;20898;-87
2023/01/26 07:19:00;;;;;;;58.90;39.27;;;;;;;41.44;37.42;100895.84;6127399;23;20438;-90
2023/01/26 07:21:27;;;;;;;58.83;40.60;;;;;;;41.43;37.55;100896.16;6133353;23;20456;-88
2023/01/26 07:23:54;;;;;;;60.83;33.57;;;;;;;41.42;37.16;100908.19;6127019;23;20473;-90
2023/01/26 07:26:23;;;;;;;40.10;32.20;;;;;;;41.41;37.28;100906.59;6125890;23;20458;-90
2023/01/26 07:28:55;;;;;;;33.93;25.27;;;;;;;41.42;37.44;100905.44;6127528;23;20414;-96
2023/01/26 07:31:21;;;;;;;42.13;28.20;;;;;;;41.43;37.27;100909.78;6132060;23;20386;-91
2023/01/26 07:33:47;;;;;;;45.90;31.80;;;;;;;41.33;37.15;100911.75;6125131;23;20544;-87
2023/01/26 07:39:35;;;;;;;40.57;27.77;;;;;;;41.39;37.56;100922.47;6126065;23;20397;-90
2023/01/26 07:42:01;;;;;;;34.77;23.40;;;;;;;41.46;37.29;100926.25;6124019;23;20389;-89
2023/01/26 07:44:27;;;;;;;36.83;24.93;;;;;;;41.52;36.97;100927.66;6124265;23;20436;-89
2023/01/26 07:46:53;;;;;;;32.00;24.23;;;;;;;41.52;37.22;100932.31;6148821;23;20429;-91
2023/01/26 07:49:19;;;;;;;32.83;21.90;;;;;;;41.53;37.28;100934.69;6124312;23;20396;-91
2023/01/26 07:51:45;;;;;;;33.20;24.53;;;;;;;41.64;36.85;100934.31;6124364;23;20429;-88
2023/01/26 07:54:11;;;;;;;31.17;22.40;;;;;;;41.63;37.03;100935.47;6124400;23;20387;-90
2023/01/26 07:56:38;;;;;;;32.73;24.37;;;;;;;41.68;36.95;100936.06;6124781;23;20779;-90
2023/01/26 07:59:04;;;;;;;52.90;24.13;;;;;;;41.54;36.89;100939.00;6124403;23;20389;-88
2023/01/26 08:01:30;;;;;;;29.47;21.57;;;;;;;41.69;36.98;100937.66;6123075;23;20469;-89
2023/01/26 08:03:56;;;;;;;25.80;20.87;;;;;;;41.75;36.94;100939.09;6123373;23;20417;-89
2023/01/26 08:06:23;;;;;;;32.80;21.80;;;;;;;41.82;36.88;100925.72;6123565;23;20424;-88
2023/01/26 08:08:50;;;;;;;31.17;20.30;;;;;;;41.78;36.92;100932.16;6124432;23;20414;-89
2023/01/26 08:11:18;;;;;;;30.13;20.30;;;;;;;41.78;37.06;100935.69;6100280;23;20896;-89
2023/01/26 08:14:03;;;;;;;32.60;18.80;;;;;;;41.67;37.11;100937.16;6124313;23;20390;-94
2023/01/26 08:16:30;;;;;;;32.93;19.33;;;;;;;41.85;37.28;100938.66;6125032;23;20944;-95
2023/01/26 08:18:55;;;;;;;28.10;18.80;;;;;;;41.90;36.94;100939.63;6124154;23;20921;-90
2023/01/26 08:21:21;;;;;;;30.67;19.67;;;;;;;41.92;36.77;100940.06;6124757;23;20391;-89
2023/01/26 08:23:49;;;;;;;23.80;17.97;;;;;;;41.91;37.05;100949.38;6124095;23;20386;-88
2023/01/26 08:26:16;;;;;;;28.07;17.93;;;;;;;41.96;36.69;100960.09;6124280;23;20705;-89
2023/01/26 08:28:43;;;;;;;27.10;20.10;;;;;;;41.84;37.19;100953.44;6125879;23;20386;-89
2023/01/26 08:31:19;;;;;;;24.43;15.50;;;;;;;41.84;36.77;100960.81;6126605;23;20386;-96
2023/01/26 08:33:49;;;;;;;24.03;19.30;;;;;;;41.98;36.94;100971.44;6102117;23;20485;-89
2023/01/26 08:36:15;;;;;;;26.63;20.10;;;;;;;41.96;36.96;100971.78;6125930;23;20734;-89
2023/01/26 08:38:42;;;;;;;30.50;19.80;;;;;;;41.93;36.99;100977.09;6125976;23;20382;-89
2023/01/26 08:41:11;;;;;;;21.50;16.43;;;;;;;41.99;36.44;100981.19;6126015;23;20386;-88
2023/01/26 08:43:37;;;;;;;23.03;17.03;;;;;;;42.11;36.56;100973.91;6125991;23;20386;-90
2023/01/26 08:46:33;;;;;;;29.73;15.47;;;;;;;42.00;36.44;100986.34;6126071;23;20429;-89
2023/01/26 08:48:59;;;;;;;24.77;16.67;;;;;;;41.86;36.62;100978.41;6125921;23;20378;-89
2023/01/26 08:51:32;;;;;;;23.20;14.90;;;;;;;41.95;36.79;100985.75;6126053;23;20417;-89
2023/01/26 08:53:58;;;;;;;20.90;15.13;;;;;;;41.97;36.68;100987.00;6126101;23;20154;-89
2023/01/26 08:56:24;;;;;;;26.97;15.57;;;;;;;41.91;36.81;100987.53;6125886;23;20415;-89
2023/01/26 08:58:50;;;;;;;26.33;17.50;;;;;;;42.02;36.75;100983.28;6125644;23;20381;-89
2023/01/26 09:01:16;;;;;;;26.50;15.33;;;;;;;42.01;36.56;100987.94;6126685;23;20413;-95
2023/01/26 09:03:43;;;;;;;25.17;17.27;;;;;;;42.10;36.56;100985.94;6126882;23;20158;-95
2023/01/26 09:06:12;;;;;;;24.43;16.83;;;;;;;42.01;36.65;100989.88;6126622;23;20504;-88
2023/01/26 09:08:38;;;;;;;20.90;15.23;;;;;;;42.25;36.28;100987.31;6125350;23;20389;-90
2023/01/26 09:11:09;;;;;;;20.70;14.40;;;;;;;42.29;35.89;100993.66;6125085;23;20730;-91
2023/01/26 09:13:36;;;;;;;30.73;15.60;;;;;;;42.23;36.02;100986.03;6125192;23;20165;-88
2023/01/26 09:16:07;;;;;;;28.23;15.90;;;;;;;42.34;36.02;100996.19;6125535;23;20461;-85
2023/01/26 09:18:33;;;;;;;25.80;15.93;;;;;;;42.17;36.32;100988.16;6126554;23;20521;-84
2023/01/26 09:21:07;;;;;;;22.53;13.10;;;;;;;42.31;36.11;100983.25;6149249;23;20401;-87
2023/01/26 09:23:33;;;;;;;22.30;14.23;;;;;;;42.37;35.82;100979.19;6123473;23;20900;-82
2023/01/26 09:25:59;;;;;;;23.33;14.10;;;;;;;42.43;35.38;100978.97;6124163;23;20765;-85
2023/01/26 09:28:25;;;;;;;27.10;14.43;;;;;;;42.09;35.91;100972.63;6124813;23;20432;-84
2023/01/26 09:30:51;;;;;;;22.40;14.47;;;;;;;42.18;36.25;100976.16;6125360;23;20839;-90
2023/01/26 09:33:17;;;;;;;20.47;15.50;;;;;;;42.24;35.79;100974.00;6124753;23;20422;-86
2023/01/26 09:35:43;;;;;;;22.77;14.40;;;;;;;42.19;36.22;100974.22;6125076;23;20421;-83
2023/01/26 09:38:09;;;;;;;20.07;15.13;;;;;;;42.16;36.14;100970.22;6124806;23;20747;-81
2023/01/26 09:41:05;;;;;;;18.90;13.80;;;;;;;42.22;35.91;100974.31;6124515;23;20168;-83
2023/01/26 09:44:06;;;;;;;19.20;14.43;;;;;;;42.47;35.72;100972.50;6124626;23;20385;-88
2023/01/26 09:47:03;;;;;;;17.93;13.53;;;;;;;42.51;35.75;100969.91;6124972;23;20413;-93
2023/01/26 09:49:35;;;;;;;19.50;13.87;;;;;;;42.39;35.69;100967.94;6122406;23;20752;-87
2023/01/26 09:52:14;;;;;;;19.43;14.83;;;;;;;42.45;35.55;100963.88;6123381;23;20907;-93
2023/01/26 09:54:50;;;;;;;18.17;13.47;;;;;;;42.34;36.00;100965.41;6125583;23;20398;-92
2023/01/26 09:57:24;;;;;;;20.10;16.03;;;;;;;42.18;36.04;100967.97;6125987;23;20401;-90
2023/01/26 10:00:10;;;;;;;22.90;16.20;;;;;;;42.39;35.60;100957.81;6125443;23;20741;-88
2023/01/26 10:03:02;;;;;;;21.13;13.70;;;;;;;42.11;35.92;100956.75;6122131;23;20448;-91
2023/01/26 10:05:59;;;;;;;25.20;15.33;;;;;;;42.33;35.83;100952.91;6124959;23;20839;-83
2023/01/26 10:08:26;;;;;;;17.83;13.70;;;;;;;42.09;36.11;100943.47;6125467;23;20386;-90
2023/01/26 10:11:01;;;;;;;21.80;15.47;;;;;;;42.44;35.45;100947.84;6125241;23;20425;-86
2023/01/26 10:13:28;;;;;;;23.20;11.73;;;;;;;42.38;35.33;100939.88;6124952;23;20390;-89
2023/01/26 10:16:02;;;;;;;17.20;13.17;;;;;;;42.48;35.23;100943.28;6124590;23;20464;-88
2023/01/26 10:18:39;;;;;;;20.17;12.70;;;;;;;42.17;35.39;100949.19;6125037;23;20469;-89
2023/01/26 10:21:08;;;;;;;22.33;12.83;;;;;;;42.58;35.07;100945.63;6124724;23;20394;-83
2023/01/26 10:23:35;;;;;;;20.17;14.77;;;;;;;42.35;35.38;100945.97;6125323;23;20457;-84
2023/01/26 10:26:22;;;;;;;21.43;14.00;;;;;;;42.25;35.58;100946.41;6149150;23;20497;-89
2023/01/26 10:29:01;;;;;;;16.37;12.87;;;;;;;42.54;35.07;100934.59;6126658;23;20835;-86
2023/01/26 10:31:37;;;;;;;22.33;13.30;;;;;;;42.46;35.16;100935.44;6127796;23;20384;-90
2023/01/26 10:34:16;;;;;;;20.43;13.37;;;;;;;42.59;34.91;100930.84;6123583;23;20850;-80
2023/01/26 10:36:47;;;;;;;18.20;13.23;;;;;;;42.48;35.26;100932.38;6129003;23;20402;-93
2023/01/26 10:39:26;;;;;;;16.70;13.40;;;;;;;42.61;35.15;100923.94;6124006;23;20398;-94
2023/01/26 10:42:04;;;;;;;25.47;13.90;;;;;;;42.70;34.81;100926.56;6103428;23;20424;-93
2023/01/26 10:44:58;;;;;;;19.70;12.40;;;;;;;42.32;35.53;100933.03;6123874;23;20458;-94
2023/01/26 10:47:24;;;;;;;22.33;13.20;;;;;;;42.24;35.35;100928.47;6125514;23;20386;-93
2023/01/26 10:49:51;;;;;;;19.37;12.87;;;;;;;42.55;34.90;100924.47;6125961;23;20897;-94
2023/01/26 10:52:20;;;;;;;15.30;12.20;;;;;;;42.51;35.19;100923.53;6125270;23;20393;-88
2023/01/26 10:54:48;;;;;;;20.70;14.43;;;;;;;42.63;35.09;100932.59;6124789;23;20388;-88
2023/01/26 10:57:14;;;;;;;18.70;14.40;;;;;;;42.74;35.02;100930.22;6129256;23;20359;-92
2023/01/26 11:00:21;;;;;;;21.13;13.90;;;;;;;42.69;35.13;100914.06;6132486;23;20410;-89
2023/01/26 11:03:03;;;;;;;16.13;12.13;;;;;;;42.81;34.84;100910.56;6083814;23;20437;-90
2023/01/26 11:10:01;;;;;;;23.20;14.20;;;;;;;42.85;34.86;100890.47;6051665;23;20388;-84
2023/01/26 11:12:29;;;;;;;16.97;12.83;;;;;;;43.00;34.31;100907.31;6044297;23;20383;-91
2023/01/26 11:15:15;;;;;;;19.63;14.17;;;;;;;42.73;34.76;100878.75;6047022;23;20471;-90
2023/01/26 11:18:08;;;;;;;19.53;13.00;;;;;;;42.96;34.55;100892.72;6049851;23;20897;-92
2023/01/26 11:21:11;;;;;;;24.40;13.47;;;;;;;42.95;34.33;100891.13;6098994;23;20456;-91
2023/01/26 12:18:50;;;;;;;21.90;14.03;;;;;;;43.24;34.50;100786.38;6126905;23;20500;-91
2023/01/26 12:31:37;;;;;;;19.87;13.80;;;;;;;43.36;34.31;100770.75;6165576;23;20353;-92
2023/01/26 12:38:04;;;;;;;19.63;14.10;;;;;;;43.29;34.51;100767.03;6164418;23;20444;-89
2023/01/26 12:40:51;;;;;;;19.67;13.80;;;;;;;43.07;34.94;100760.94;6158489;23;20384;-89
2023/01/26 12:44:47;;;;;;;;;;;;;;;;;;;;;
2023/01/26 14:15:22;;;;;;;25.47;16.00;;;;;;;43.93;33.10;100648.59;6100879;23;20450;-86
2023/01/26 14:18:32;;;;;;;22.37;14.77;;;;;;;43.78;33.42;100625.59;6132466;23;20424;-90
2023/01/26 14:21:04;;;;;;;17.60;14.60;;;;;;;43.96;33.46;100624.09;6099468;23;20877;-89
2023/01/26 14:23:36;;;;;;;21.77;13.37;;;;;;;44.09;32.71;100621.25;6101555;23;20418;-90
2023/01/26 14:26:08;;;;;;;22.07;15.40;;;;;;;44.02;32.94;100623.84;6100112;23;20410;-89
2023/01/26 14:28:40;;;;;;;20.40;15.30;;;;;;;44.11;32.87;100614.28;6098943;23;20393;-89
2023/01/26 14:31:42;;;;;;;;;;;;;;;;;;;;;
2023/01/26 14:35:10;;;;;;;25.07;15.43;;;;;;;44.34;32.69;100599.97;6088890;23;20504;-91
2023/01/26 14:38:21;;;;;;;27.00;12.93;;;;;;;44.12;32.50;100590.47;6013573;23;20393;-87
2023/01/26 14:41:36;;;;;;;18.90;14.20;;;;;;;44.31;32.20;100606.94;6104292;23;20896;-89
2023/01/26 14:44:14;;;;;;;21.80;13.20;;;;;;;44.47;32.40;100615.09;6122232;23;20413;-84
2023/01/26 14:46:54;;;;;;;18.23;12.90;;;;;;;44.34;32.68;100617.19;6095195;23;20453;-85
2023/01/26 14:49:48;;;;;;;21.50;15.07;;;;;;;44.32;32.47;100611.28;6100180;23;20729;-91
2023/01/26 14:52:24;;;;;;;23.27;12.83;;;;;;;44.18;32.74;100608.22;6122629;23;20375;-84
2023/01/26 14:54:56;;;;;;;20.37;13.87;;;;;;;44.65;32.13;100599.91;6097316;23;20421;-86
2023/01/26 14:57:27;;;;;;;20.10;13.60;;;;;;;44.64;32.56;100592.84;6097167;23;20382;-89
2023/01/26 14:59:58;;;;;;;31.60;17.43;;;;;;;44.87;31.58;100583.88;6097751;23;20456;-93
2023/01/26 15:02:42;;;;;;;23.33;14.70;;;;;;;44.99;31.70;100575.53;6122980;23;20382;-94
2023/01/26 15:05:12;;;;;;;26.00;14.87;;;;;;;45.09;31.60;100583.19;6097121;23;20386;-88
2023/01/26 15:08:30;;;;;;;24.80;15.03;;;;;;;45.10;31.26;100584.75;6097965;23;20980;-89
2023/01/26 15:13:51;;;;;;;28.00;12.60;;;;;;;44.91;31.71;100571.84;6123107;23;20448;-90
2023/01/26 15:16:22;;;;;;;26.57;16.00;;;;;;;45.03;31.69;100571.72;6052943;23;20520;-85
2023/01/26 15:19:21;;;;;;;20.90;13.73;;;;;;;45.16;31.88;100575.09;6099064;23;20465;-89
2023/01/26 15:21:49;;;;;;;22.00;17.03;;;;;;;45.28;31.76;100574.13;6099045;23;20394;-90
2023/01/26 15:27:37;;;;;;;31.80;16.70;;;;;;;45.12;31.36;100562.47;6133897;23;20424;-90
2023/01/26 15:30:05;;;;;;;23.87;14.37;;;;;;;45.13;31.37;100556.66;6099651;23;20739;-90
2023/01/26 15:32:42;;;;;;;20.60;14.50;;;;;;;44.86;31.82;100565.88;6098579;23;20456;-90
2023/01/26 15:35:26;;;;;;;27.50;12.63;;;;;;;44.66;32.54;100574.13;6103653;23;20432;-92
2023/01/26 15:38:04;;;;;;;23.63;13.43;;;;;;;44.92;32.20;100581.66;6105873;23;20738;-90
2023/01/26 15:40:31;;;;;;;24.27;16.80;;;;;;;45.16;31.69;100568.81;6100428;23;20390;-92
2023/01/26 15:43:09;;;;;;;26.07;18.20;;;;;;;45.23;31.70;100571.69;6098612;23;20417;-90
2023/01/26 15:45:35;;;;;;;26.83;15.30;;;;;;;45.68;31.27;100581.09;6101122;23;20449;-90
2023/01/26 15:48:22;;;;;;;30.37;17.97;;;;;;;45.45;31.01;100567.41;6102874;23;20460;-93
2023/01/26 15:50:53;;;;;;;24.47;16.77;;;;;;;45.39;30.87;100561.44;6104289;23;20409;-93
2023/01/26 15:53:48;;;;;;;23.70;15.13;;;;;;;45.36;31.38;100561.38;6081010;23;20382;-94
2023/01/26 15:56:15;;;;;;;24.33;15.83;;;;;;;45.30;31.28;100563.59;6105067;23;20441;-91
2023/01/26 15:59:01;;;;;;;30.43;16.60;;;;;;;45.35;31.09;100560.56;6105589;23;20389;-90
2023/01/26 16:02:07;;;;;;;17.23;12.40;;;;;;;45.36;31.19;100564.88;6107470;23;20400;-84
2023/01/26 16:04:53;;;;;;;19.03;14.67;;;;;;;45.31;31.63;100556.19;6017912;23;20823;-89
2023/01/26 16:07:20;;;;;;;26.07;15.10;;;;;;;45.36;31.40;100561.38;6091264;23;20405;-86
2023/01/26 16:09:49;;;;;;;23.83;16.47;;;;;;;45.37;31.34;100558.28;6102181;23;20398;-86
2023/01/26 16:12:17;;;;;;;28.37;14.87;;;;;;;45.22;31.98;100556.41;6098154;23;20441;-87
2023/01/26 16:14:43;;;;;;;36.60;16.30;;;;;;;45.26;31.82;100554.53;6099518;23;20438;-90
2023/01/26 16:17:57;;;;;;;30.33;14.57;;;;;;;45.24;32.06;100560.38;6106451;23;20417;-88
2023/01/26 16:20:23;;;;;;;17.37;12.90;;;;;;;45.06;32.05;100558.47;6089451;23;20367;-92
2023/01/26 16:22:54;;;;;;;20.87;14.33;;;;;;;45.19;32.06;100563.41;6102129;23;20385;-83
2023/01/26 16:25:29;;;;;;;27.33;14.17;;;;;;;45.10;31.69;100573.81;6109693;23;20862;-87
2023/01/26 16:27:58;;;;;;;23.03;15.60;;;;;;;45.00;31.79;100575.19;6104225;23;20385;-92
2023/01/26 16:30:39;;;;;;;23.93;16.10;;;;;;;45.02;32.42;100577.56;6102172;23;20384;-83
2023/01/26 16:33:05;;;;;;;20.57;15.03;;;;;;;44.98;32.26;100569.28;6075817;23;20859;-91
2023/01/26 16:35:46;;;;;;;18.17;14.00;;;;;;;45.17;32.04;100568.44;6106985;23;20457;-82
2023/01/26 16:38:30;;;;;;;16.40;14.00;;;;;;;45.35;31.67;100577.00;6112278;23;20385;-85
2023/01/26 16:44:20;;;;;;;22.13;13.50;;;;;;;45.33;31.58;100581.25;6131573;23;20869;-92
2023/01/26 16:47:04;;;;;;;26.23;15.97;;;;;;;45.39;30.77;100583.34;6105572;23;20386;-92
2023/01/26 16:49:41;;;;;;;22.30;13.40;;;;;;;45.28;31.66;100576.84;6115182;23;20382;-93
2023/01/26 16:55:48;;;;;;;18.80;11.80;;;;;;;44.82;32.44;100593.19;6137062;23;20428;-91
2023/01/26 16:58:51;;;;;;;24.63;15.70;;;;;;;44.86;31.94;100609.66;6113032;23;20396;-92
2023/01/26 17:01:27;;;;;;;21.20;12.50;;;;;;;44.77;32.60;100623.59;6106805;23;20381;-93
2023/01/26 17:07:15;;;;;;;19.53;13.83;;;;;;;44.78;32.16;100618.91;6142244;23;20374;-92
2023/01/26 17:09:41;;;;;;;29.73;18.00;;;;;;;44.81;32.51;100629.91;6131072;23;20389;-92
2023/01/26 17:12:09;;;;;;;26.37;17.33;;;;;;;44.69;32.79;100628.13;6109822;23;20388;-93
2023/01/26 17:17:50;;;;;;;20.70;14.23;;;;;;;44.29;33.07;100627.59;6141948;23;20497;-88
2023/01/26 17:20:40;;;;;;;22.53;14.53;;;;;;;43.99;33.98;100622.59;6119835;23;20410;-93
2023/01/26 17:23:52;;;;;;;18.23;12.53;;;;;;;43.92;33.76;100642.34;6138012;23;20370;-96
2023/01/26 17:26:42;;;;;;;21.10;14.37;;;;;;;43.63;34.39;100627.13;6111462;23;20410;-94
2023/01/26 17:32:44;;;;;;;36.57;16.60;;;;;;;43.43;34.55;100639.91;6118234;23;20441;-90
2023/01/26 17:35:13;;;;;;;41.77;19.87;;;;;;;43.10;35.08;100639.38;6107454;23;20434;-96
2023/01/26 17:37:39;;;;;;;34.37;18.30;;;;;;;43.13;34.88;100642.19;6107078;23;20378;-95
2023/01/26 17:40:10;;;;;;;20.57;17.80;;;;;;;43.11;34.96;100644.47;6102864;23;20477;-88
2023/01/26 17:42:36;;;;;;;24.57;19.10;;;;;;;43.09;35.36;100654.13;6103390;23;20386;-92
2023/01/26 17:45:23;;;;;;;33.50;19.63;;;;;;;42.94;35.62;100650.19;6115445;23;20417;-96
2023/01/26 17:47:50;;;;;;;41.17;23.20;;;;;;;42.99;35.53;100681.94;6136116;23;20389;-92
2023/01/26 17:50:29;;;;;;;54.70;23.43;;;;;;;42.99;35.53;100662.84;6107460;23;20386;-88
2023/01/26 17:52:55;;;;;;;35.13;19.50;;;;;;;42.94;35.74;100666.56;6109979;23;20389;-92
2023/01/26 17:55:35;;;;;;;40.00;27.57;;;;;;;42.67;36.31;100668.13;6130944;23;20956;-88
2023/01/26 17:58:01;;;;;;;36.90;23.90;;;;;;;42.68;36.18;100666.97;6130024;23;20832;-90
2023/01/26 18:00:27;;;;;;;24.07;17.23;;;;;;;42.70;36.35;100680.25;6101737;23;20441;-89
2023/01/26 18:03:05;;;;;;;28.77;18.27;;;;;;;42.61;36.37;100691.31;6128320;23;20154;-96
2023/01/26 18:05:32;;;;;;;24.63;16.33;;;;;;;42.59;36.69;100688.13;6130369;23;20413;-92
2023/01/26 18:07:58;;;;;;;30.53;18.23;;;;;;;42.50;36.65;100692.88;6101667;23;20386;-90
2023/01/26 18:10:33;;;;;;;28.07;19.07;;;;;;;42.33;36.82;100678.34;6104980;23;20396;-94
2023/01/26 18:13:44;;;;;;;24.50;19.07;;;;;;;42.30;36.33;100678.25;6133812;23;20138;-93
2023/01/26 18:19:01;;;;;;;35.10;15.20;;;;;;;42.45;36.94;100707.53;6178825;23;20439;-92
2023/01/26 18:21:35;;;;;;;22.77;13.47;;;;;;;42.40;36.71;100708.56;6192044;23;20764;-93
2023/01/26 18:24:05;;;;;;;38.27;17.00;;;;;;;42.50;36.78;100718.22;6140457;23;20422;-87
2023/01/26 18:26:36;;;;;;;32.33;19.27;;;;;;;42.53;36.61;100705.81;6196042;23;20439;-90
2023/01/26 18:29:04;;;;;;;31.77;19.03;;;;;;;42.50;36.76;100722.88;6186383;23;20391;-91
2023/01/26 18:31:35;;;;;;;26.47;18.07;;;;;;;42.33;36.83;100723.91;6171091;23;20384;-88
2023/01/26 18:34:14;;;;;;;26.93;18.10;;;;;;;42.31;36.99;100715.28;6167946;23;20438;-89
2023/01/26 18:37:02;;;;;;;30.57;18.57;;;;;;;42.14;37.34;100713.50;6171766;23;20392;-88
2023/01/26 18:39:32;;;;;;;23.47;17.47;;;;;;;42.32;37.04;100717.66;6170101;23;20385;-92
2023/01/26 18:42:01;;;;;;;25.40;15.43;;;;;;;42.31;37.37;100705.16;6190393;23;20386;-90
2023/01/26 18:44:47;;;;;;;24.97;14.70;;;;;;;42.35;37.20;100736.03;6189815;23;20376;-89
2023/01/26 18:47:16;;;;;;;23.57;16.70;;;;;;;42.15;37.44;100723.28;6163110;23;20388;-88
2023/01/26 18:49:51;;;;;;;30.43;19.70;;;;;;;42.23;37.07;100710.69;6184098;23;20173;-82
2023/01/26 18:52:27;;;;;;;36.33;19.47;;;;;;;42.26;37.13;100708.09;6181205;23;20391;-78
2023/01/26 18:54:53;;;;;;;21.33;16.53;;;;;;;42.18;36.95;100725.38;6190525;23;20451;-85
2023/01/26 18:57:21;;;;;;;23.90;16.40;;;;;;;42.36;36.96;100724.03;6158301;23;20388;-92
2023/01/26 19:00:03;;;;;;;23.90;15.10;;;;;;;42.31;37.32;100718.78;6184996;23;20373;-90
2023/01/26 19:02:32;;;;;;;24.80;15.20;;;;;;;42.28;37.10;100727.63;6187132;23;20387;-84
2023/01/26 19:05:01;;;;;;;24.97;17.50;;;;;;;42.12;37.51;100718.53;6161929;23;20408;-81
2023/01/26 19:07:27;;;;;;;31.13;15.07;;;;;;;42.33;37.44;100730.13;6135989;23;20761;-86
2023/01/26 19:09:54;;;;;;;23.90;16.83;;;;;;;42.36;37.37;100734.13;6159363;23;20416;-89
2023/01/26 19:12:20;;;;;;;32.03;17.67;;;;;;;42.36;36.86;100745.03;6183057;23;20209;-90
2023/01/26 19:14:52;;;;;;;23.40;18.53;;;;;;;42.29;37.22;100734.66;6182155;23;20416;-86
2023/01/26 19:17:18;;;;;;;20.97;15.07;;;;;;;42.31;37.39;100735.16;6157404;23;20404;-87
2023/01/26 19:19:46;;;;;;;18.13;14.83;;;;;;;42.29;37.38;100756.47;6158547;23;20419;-86
2023/01/26 19:22:15;;;;;;;27.83;15.80;;;;;;;42.29;37.28;100750.22;6159151;23;20478;-91
2023/01/26 19:24:46;;;;;;;33.37;17.00;;;;;;;42.29;37.45;100751.03;6160146;23;20447;-92
2023/01/26 19:27:17;;;;;;;22.87;18.10;;;;;;;42.26;37.59;100754.44;6159583;23;20388;-93
2023/01/26 19:29:53;;;;;;;20.67;15.20;;;;;;;42.18;37.55;100744.44;6186255;23;20407;-89
2023/01/26 19:32:24;;;;;;;18.27;15.77;;;;;;;42.14;37.67;100751.66;6182681;23;20455;-85
2023/01/26 19:34:51;;;;;;;22.60;15.73;;;;;;;42.27;37.41;100769.66;6187037;23;20447;-90
2023/01/26 19:37:17;;;;;;;23.90;16.00;;;;;;;42.18;37.76;100757.28;6155862;23;20388;-87
2023/01/26 19:39:43;;;;;;;29.00;13.73;;;;;;;42.33;37.62;100771.03;6161539;23;20153;-89
2023/01/26 19:42:10;;;;;;;18.00;13.20;;;;;;;42.34;37.64;100761.72;6158501;23;20411;-88
2023/01/26 19:44:41;;;;;;;25.93;14.70;;;;;;;42.18;37.46;100776.38;6186772;23;20148;-87
2023/01/26 19:47:17;;;;;;;26.03;14.23;;;;;;;42.29;37.47;100785.69;6191121;23;20387;-91
2023/01/26 19:49:46;;;;;;;21.30;14.30;;;;;;;42.22;37.09;100796.34;6164318;23;20988;-88
2023/01/26 19:52:13;;;;;;;17.00;13.80;;;;;;;41.74;37.61;100786.81;6189301;23;20419;-85
2023/01/26 19:54:47;;;;;;;17.60;13.43;;;;;;;41.85;37.39;100785.31;6157211;23;20424;-89
2023/01/26 19:57:24;;;;;;;22.80;16.30;;;;;;;41.96;37.47;100794.66;6170055;23;20407;-86
2023/01/26 20:00:05;;;;;;;26.93;15.03;;;;;;;42.13;37.30;100790.97;6165245;23;20407;-86
2023/01/26 20:02:33;;;;;;;35.90;18.87;;;;;;;42.11;37.25;100812.28;6192333;23;20380;-88
2023/01/26 20:04:59;;;;;;;28.00;17.87;;;;;;;42.15;37.51;100810.50;6131771;23;20388;-80
2023/01/26 20:07:28;;;;;;;39.70;17.90;;;;;;;42.07;38.09;100825.81;6184427;23;20783;-81
2023/01/26 20:10:09;;;;;;;31.67;17.17;;;;;;;42.07;37.65;100809.47;6190843;23;20432;-83
2023/01/26 20:12:51;;;;;;;21.80;16.20;;;;;;;42.13;37.69;100819.03;6164981;23;20873;-85
2023/01/26 20:15:26;;;;;;;21.90;15.50;;;;;;;42.17;37.37;100823.81;6156320;23;20488;-89
2023/01/26 20:18:03;;;;;;;32.43;16.83;;;;;;;42.24;37.03;100819.41;6162055;23;20816;-86
2023/01/26 20:20:36;;;;;;;25.83;15.70;;;;;;;42.31;37.40;100824.31;6194146;23;20446;-90
2023/01/26 20:23:36;;;;;;;21.50;13.97;;;;;;;42.14;37.62;100823.34;6164031;23;20984;-86
2023/01/26 20:26:08;;;;;;;25.20;16.73;;;;;;;42.27;37.27;100823.41;6161999;23;20759;-90
2023/01/26 20:28:44;;;;;;;28.70;16.43;;;;;;;42.31;37.17;100832.50;6159778;23;20390;-91
2023/01/26 20:31:25;;;;;;;19.67;14.50;;;;;;;42.25;37.14;100831.91;6160086;23;20410;-90
2023/01/26 20:33:52;;;;;;;30.33;15.20;;;;;;;42.10;37.52;100835.22;6160478;23;20442;-86
2023/01/26 20:36:21;;;;;;;26.47;16.87;;;;;;;42.38;37.25;100844.44;6159122;23;20423;-87
2023/01/26 20:38:48;;;;;;;22.83;15.67;;;;;;;42.45;37.47;100845.81;6160210;23;20772;-88
2023/01/26 20:41:21;;;;;;;28.27;16.47;;;;;;;42.28;37.39;100836.69;6159488;23;20383;-85
2023/01/26 20:43:47;;;;;;;20.20;14.57;;;;;;;42.32;37.46;100845.78;6160155;23;20384;-86
2023/01/26 20:46:17;;;;;;;21.63;15.83;;;;;;;42.17;37.71;100838.22;6159498;23;20984;-87
2023/01/26 20:48:44;;;;;;;26.07;14.60;;;;;;;42.19;37.43;100837.91;6185008;23;20456;-86
2023/01/26 20:51:13;;;;;;;23.10;14.57;;;;;;;42.22;37.30;100843.47;6186539;23;20364;-86
2023/01/26 20:53:40;;;;;;;24.80;16.83;;;;;;;42.20;37.60;100831.34;6159995;23;20388;-85
2023/01/26 20:56:13;;;;;;;26.47;15.60;;;;;;;42.28;37.22;100825.78;6183724;23;20481;-86
2023/01/26 20:58:41;;;;;;;29.07;16.67;;;;;;;42.28;37.39;100839.41;6161264;23;20452;-86
2023/01/26 21:01:13;;;;;;;19.47;14.70;;;;;;;42.14;37.90;100847.06;6160147;23;20388;-86
2023/01/26 21:03:40;;;;;;;25.70;15.23;;;;;;;42.20;37.43;100843.03;6159786;23;20399;-89
2023/01/26 21:06:09;;;;;;;33.63;17.07;;;;;;;42.19;37.58;100846.88;6159204;23;20908;-90
2023/01/26 21:08:38;;;;;;;26.57;16.40;;;;;;;42.17;37.72;100843.69;6159796;23;20376;-86
2023/01/26 21:11:09;;;;;;;27.57;16.70;;;;;;;42.12;37.74;100852.88;6159651;23;20434;-90
2023/01/26 21:13:35;;;;;;;20.93;15.50;;;;;;;42.14;37.47;100850.59;6159627;23;20910;-86